DSTT2: Red River at Denison Dam nr Denison, TX

Data processed at Tue Dec 19 2017 23:43


All information presented herein is the property of the government of the United States of America and may be revised or deleted at any time without prior notice.
Dissemination of this information without the expressed written consent of the Public Affairs Office, Tulsa District U.S. Army Corps of Engineers is strictly prohibited.
These data are gathered electronically and, as presented, have not undergone any form of quality control. These data are not guaranteed to be valid or correct.
Go to home page.
Go to station list.

Upstream stations:

Downstream station:
Previous Day
Next Day
Current Day
    
SHEF ID:       DSTT2     Red River at Denison Dam nr Deni
STATION TYPE:  

               PRECIP     STAGE  RIV-FLOW  BAT-LOAD
                   in        ft       cfs      volt
              Ccp-Rev   Ccp-Rev   Ccp-Rev   Ccp-Rev
(US/Central)
12/17 00:00      0.04      4.97       267     12.73
12/17 01:00      0.02      4.84       204     12.73
12/17 02:00      0.01      4.71       151     12.73
12/17 03:00      0.02      4.60       114     12.73
12/17 04:00      0.01      4.50        86     12.73
12/17 05:00      0.01      4.42        66     12.65
12/17 06:00      0.01      4.37        55     12.65
12/17 07:00      0.00      4.82       195     12.65
12/17 08:00      0.01      6.84      2179     12.65
12/17 09:00      0.00      7.29      2938     12.65
12/17 10:00      0.01      6.10      1185     12.73
12/17 11:00      0.00      5.62       709     13.05
12/17 12:00      0.01      5.31       467     13.21
12/17 13:00      0.00      5.11       342     13.29
12/17 14:00      0.00      4.92       242     13.29
12/17 15:00      0.01      4.77       174     13.29
12/17 16:00      0.00      4.66       134     13.21
12/17 17:00      0.00      5.08       325     13.05
12/17 18:00      0.00      6.96      2370     12.97
12/17 19:00      0.00      7.50      3336     12.89
12/17 20:00      0.00      7.71      3762     12.81
12/17 21:00      0.00      6.42      1580     12.73
12/17 22:00      0.00      5.82       892     12.73
12/17 23:00      0.00      5.44       561     12.73